To NAV CANADA Home Page Login to a new session Search on AWWS site Feedback and Comments Disclaimer Vers la page française équivalente Tips FAQ What's new on the site To the Forecasts and Observations / NOTAM section To "File a Flight Plan" website Publications and other links Update of the User's profile FIC Telephone Numbers My Weather Data Folder Route Weather Data Regional Weather Data Local Weather Data To the Forecasts and Observations / NOTAM section
Request Generated 04/20/2014 at 03:10:48 UTC . Weather information available at that time is displayed.

METAR/TAF

COLD LAKE/GROUP CAPTAIN R.W. MCNAIR/AB    

METAR CYOD 200300Z 12010KT 15SM FEW050 FEW250 05/M01 A2978 RMK SC2CI0 SLP108=
METAR CYOD 200200Z 13006KT 15SM FEW050 FEW250 07/M01 A2977 RMK SC1CI0 SLP104=
METAR CYOD 200100Z 13008KT 15SM FEW050 FEW250 09/M01 A2977 RMK CU1CI1 SLP102=

TAF CYOD 192330Z 2000/2024 16005KT P6SM FEW040 TEMPO 2000/2005 BKN040
FM200500 VRB03KT P6SM SCT015 BKN040 TEMPO 2005/2008 4SM -RA BR
BKN015 OVC025
FM200800 VRB03KT P6SM SCT008 BKN025 TEMPO 2008/2020 2SM -RA BR
BKN008 PROB40 2008/2015 1SM -FZRA BR OVC005
FM202000 VRB03KT P6SM SCT025 TEMPO 2020/2024 P6SM -SHRA BKN025
RMK NXT FCST BY 200600Z=
Your time UTC time
Weather data provided by Environment Canada and NAV CANADA